Time;durP1;ratioP1;P1;durP2;ratioP2;P2;SDS_P1;SDS_P2;PMS_P1;PMS_P2;Temp;Humidity;BMP_temperature;BMP_pressure;BME280_temperature;BME280_humidity;BME280_pressure;Samples;Min_cycle;Max_cycle;Signal;HPM_P1;HPM_P2
2022/08/20 00:02:08;;;;;;;23.55;16.90;;;;;;;;;;5094796;28;20165;-80
2022/08/20 00:04:36;;;;;;;25.20;18.58;;;;;;;;;;5094467;28;20048;-79
2022/08/20 00:07:05;;;;;;;24.38;18.27;;;;;;;;;;5093916;28;20102;-79
2022/08/20 00:09:33;;;;;;;25.52;18.17;;;;;;;;;;5094773;28;20048;-79
2022/08/20 00:12:03;;;;;;;24.38;19.00;;;;;;;;;;5093795;28;20117;-79
2022/08/20 00:14:30;;;;;;;20.48;17.90;;;;;;;;;;5094331;28;20082;-79
2022/08/20 00:17:00;;;;;;;20.63;18.13;;;;;;;;;;5093729;28;20048;-80
2022/08/20 00:19:27;;;;;;;21.52;17.35;;;;;;;;;;5092934;28;20044;-79
2022/08/20 00:21:54;;;;;;;20.33;17.27;;;;;;;;;;5094588;28;20040;-79
2022/08/20 00:24:25;;;;;;;18.98;16.65;;;;;;;;;;5093068;28;20047;-78
2022/08/20 00:26:52;;;;;;;18.20;16.40;;;;;;;;;;5094146;28;20048;-79
2022/08/20 00:29:19;;;;;;;18.23;16.42;;;;;;;;;;5094206;28;20090;-79
2022/08/20 00:31:49;;;;;;;20.63;17.05;;;;;;;;;;5092499;28;20059;-79
2022/08/20 00:34:16;;;;;;;24.13;18.48;;;;;;;;;;5093952;28;20131;-79
2022/08/20 00:36:43;;;;;;;23.15;17.92;;;;;;;;;;5093908;28;20083;-79
2022/08/20 00:39:10;;;;;;;24.23;17.88;;;;;;;;;;5093975;28;20101;-79
2022/08/20 00:41:37;;;;;;;22.67;17.70;;;;;;;;;;5092404;28;20080;-79
2022/08/20 00:44:04;;;;;;;20.05;16.15;;;;;;;;;;5092005;28;20078;-78
2022/08/20 00:46:32;;;;;;;18.30;16.40;;;;;;;;;;5092222;28;20080;-78
2022/08/20 00:49:01;;;;;;;20.63;17.13;;;;;;;;;;5092374;28;20044;-78
2022/08/20 00:51:50;;;;;;;20.52;17.45;;;;;;;;;;5093551;28;20052;-78
2022/08/20 00:54:20;;;;;;;19.17;16.30;;;;;;;;;;5093420;28;20086;-78
2022/08/20 00:56:50;;;;;;;18.98;16.38;;;;;;;;;;5092420;28;20086;-79
2022/08/20 00:59:22;;;;;;;18.77;16.73;;;;;;;;;;5093400;28;20085;-78
2022/08/20 01:01:50;;;;;;;18.40;16.42;;;;;;;;;;5092323;28;20044;-78
2022/08/20 01:04:23;;;;;;;20.53;16.70;;;;;;;;;;5093347;28;20414;-78
2022/08/20 01:06:50;;;;;;;19.80;17.25;;;;;;;;;;5093502;28;20052;-78
2022/08/20 01:09:18;;;;;;;18.88;16.70;;;;;;;;;;5093984;28;20483;-78
2022/08/20 01:12:06;;;;;;;21.63;16.70;;;;;;;;;;5092368;28;20044;-79
2022/08/20 01:17:06;;;;;;;19.15;15.48;;;;;;;;;;5097930;28;20048;-79
2022/08/20 01:19:41;;;;;;;20.23;17.50;;;;;;;;;;5096509;28;20048;-79
2022/08/20 01:24:58;;;;;;;19.17;16.73;;;;;;;;;;5096430;28;20519;-79
2022/08/20 01:27:25;;;;;;;18.02;16.15;;;;;;;;;;5099493;28;20044;-79
2022/08/20 01:29:56;;;;;;;19.95;16.15;;;;;;;;;;5100467;28;20483;-80
2022/08/20 01:32:23;;;;;;;20.75;16.55;;;;;;;;;;5100253;28;20108;-78
2022/08/20 01:34:51;;;;;;;24.60;18.35;;;;;;;;;;5099602;28;20083;-79
2022/08/20 01:37:18;;;;;;;18.27;16.33;;;;;;;;;;5099303;28;20430;-79
2022/08/20 01:39:45;;;;;;;18.15;16.25;;;;;;;;;;5097664;28;20067;-79
2022/08/20 01:42:16;;;;;;;18.55;16.48;;;;;;;;;;5098795;28;20517;-80
2022/08/20 01:44:44;;;;;;;18.33;16.40;;;;;;;;;;5098070;28;20087;-79
2022/08/20 01:47:20;;;;;;;20.75;15.07;;;;;;;;;;5097048;28;20131;-78
2022/08/20 01:49:53;;;;;;;21.30;17.42;;;;;;;;;;5096187;28;20052;-79
2022/08/20 01:52:32;;;;;;;18.40;15.63;;;;;;;;;;5096428;28;20087;-79
2022/08/20 01:54:59;;;;;;;23.70;16.33;;;;;;;;;;5096122;28;20082;-79
2022/08/20 01:57:28;;;;;;;18.55;16.38;;;;;;;;;;5096063;28;20448;-79
2022/08/20 01:59:55;;;;;;;18.25;16.00;;;;;;;;;;5096157;28;20514;-79
2022/08/20 02:02:23;;;;;;;17.20;15.45;;;;;;;;;;5097452;28;20464;-79
2022/08/20 02:04:50;;;;;;;18.98;15.65;;;;;;;;;;5097013;28;20494;-79
2022/08/20 02:07:20;;;;;;;25.55;17.52;;;;;;;;;;5095750;28;20097;-80
2022/08/20 02:09:48;;;;;;;18.88;16.65;;;;;;;;;;5096797;28;20048;-79
2022/08/20 02:12:16;;;;;;;23.05;17.65;;;;;;;;;;5096543;28;20052;-79
2022/08/20 02:14:45;;;;;;;18.20;16.15;;;;;;;;;;5095116;28;20425;-79
2022/08/20 02:17:13;;;;;;;23.20;16.65;;;;;;;;;;5095223;28;20086;-79
2022/08/20 02:19:48;;;;;;;24.05;16.38;;;;;;;;;;5096384;28;20044;-79
2022/08/20 02:22:34;;;;;;;18.45;15.65;;;;;;;;;;5094814;28;20087;-79
2022/08/20 02:25:04;;;;;;;17.55;15.38;;;;;;;;;;5094702;28;20051;-79
2022/08/20 02:27:31;;;;;;;16.80;14.98;;;;;;;;;;5096140;28;20090;-80
2022/08/20 02:29:58;;;;;;;20.50;16.60;;;;;;;;;;5095995;28;20087;-79
2022/08/20 02:32:25;;;;;;;17.30;15.50;;;;;;;;;;5094401;28;20087;-79
2022/08/20 02:35:02;;;;;;;16.58;14.88;;;;;;;;;;5094463;28;20138;-79
2022/08/20 02:37:30;;;;;;;21.42;16.00;;;;;;;;;;5093984;28;20044;-79
2022/08/20 02:39:57;;;;;;;17.00;15.30;;;;;;;;;;5095919;28;20522;-79
2022/08/20 02:42:25;;;;;;;20.98;15.82;;;;;;;;;;5095432;28;20070;-79
2022/08/20 02:44:53;;;;;;;20.83;16.88;;;;;;;;;;5093492;28;20088;-79
2022/08/20 02:47:20;;;;;;;19.65;15.18;;;;;;;;;;5094113;28;20076;-79
2022/08/20 02:49:48;;;;;;;26.10;16.80;;;;;;;;;;5094082;28;20636;-78
2022/08/20 02:52:16;;;;;;;18.77;15.90;;;;;;;;;;5093985;28;20091;-79
2022/08/20 02:54:43;;;;;;;16.60;14.95;;;;;;;;;;5098256;28;20503;-80
2022/08/20 02:57:14;;;;;;;21.88;16.23;;;;;;;;;;5100144;28;20419;-80
2022/08/20 02:59:44;;;;;;;16.92;14.82;;;;;;;;;;5100070;28;20070;-81
2022/08/20 03:02:11;;;;;;;26.70;18.55;;;;;;;;;;5100826;28;20164;-80
2022/08/20 03:04:38;;;;;;;24.55;18.23;;;;;;;;;;5100099;28;20453;-80
2022/08/20 03:07:05;;;;;;;23.00;18.27;;;;;;;;;;5099739;28;20093;-80
2022/08/20 03:09:33;;;;;;;20.23;17.55;;;;;;;;;;5100399;28;20054;-80
2022/08/20 03:12:01;;;;;;;25.58;18.48;;;;;;;;;;5098255;28;20048;-79
2022/08/20 03:14:28;;;;;;;18.40;16.42;;;;;;;;;;5098619;28;20464;-80
2022/08/20 03:16:56;;;;;;;21.65;16.48;;;;;;;;;;5097096;28;20438;-79
2022/08/20 03:19:23;;;;;;;19.70;14.55;;;;;;;;;;5097447;28;20048;-78
2022/08/20 03:21:50;;;;;;;22.80;15.05;;;;;;;;;;5095741;28;20452;-78
2022/08/20 03:24:18;;;;;;;18.73;16.08;;;;;;;;;;5095531;28;20048;-79
2022/08/20 03:26:45;;;;;;;17.98;15.85;;;;;;;;;;5096444;28;20048;-78
2022/08/20 03:29:12;;;;;;;25.20;17.02;;;;;;;;;;5094978;28;20051;-79
2022/08/20 03:31:39;;;;;;;27.00;17.88;;;;;;;;;;5094904;28;20059;-79
2022/08/20 03:34:07;;;;;;;20.73;16.27;;;;;;;;;;5096014;28;20471;-78
2022/08/20 03:36:34;;;;;;;18.95;16.58;;;;;;;;;;5094101;28;20095;-79
2022/08/20 03:39:03;;;;;;;17.73;15.18;;;;;;;;;;5095908;28;20414;-79
2022/08/20 03:41:31;;;;;;;17.92;16.10;;;;;;;;;;5093830;28;20509;-78
2022/08/20 03:43:58;;;;;;;29.58;18.50;;;;;;;;;;5093381;28;20056;-78
2022/08/20 03:46:25;;;;;;;20.00;16.10;;;;;;;;;;5095455;28;20117;-78
2022/08/20 03:48:53;;;;;;;22.45;16.73;;;;;;;;;;5092978;28;20098;-78
2022/08/20 03:51:27;;;;;;;22.65;16.60;;;;;;;;;;5093582;28;20060;-80
2022/08/20 03:53:55;;;;;;;28.55;18.60;;;;;;;;;;5096948;28;20586;-78
2022/08/20 03:56:22;;;;;;;23.90;17.30;;;;;;;;;;5100498;28;20044;-79
2022/08/20 03:58:49;;;;;;;21.45;16.52;;;;;;;;;;5098212;28;20052;-79
2022/08/20 04:01:16;;;;;;;20.67;16.70;;;;;;;;;;5094930;28;20071;-80
2022/08/20 04:04:03;;;;;;;19.08;15.15;;;;;;;;;;5095752;28;20502;-80
2022/08/20 04:06:31;;;;;;;30.92;20.02;;;;;;;;;;5094499;28;20048;-79
2022/08/20 04:08:58;;;;;;;28.83;19.70;;;;;;;;;;5094898;28;20044;-79
2022/08/20 04:11:25;;;;;;;24.60;18.42;;;;;;;;;;5095192;28;20048;-79
2022/08/20 04:13:52;;;;;;;27.75;17.65;;;;;;;;;;5095504;28;20043;-79
2022/08/20 04:16:21;;;;;;;26.73;19.25;;;;;;;;;;5096193;28;20097;-79
2022/08/20 04:18:48;;;;;;;30.55;20.13;;;;;;;;;;5095922;28;20456;-79
2022/08/20 04:21:29;;;;;;;24.30;17.75;;;;;;;;;;5095324;28;20055;-79
2022/08/20 04:23:59;;;;;;;24.65;18.70;;;;;;;;;;5095365;28;20082;-80
2022/08/20 04:26:27;;;;;;;18.83;16.02;;;;;;;;;;5095158;28;20079;-79
2022/08/20 04:28:54;;;;;;;18.38;16.27;;;;;;;;;;5094115;28;20047;-80
2022/08/20 04:31:32;;;;;;;20.05;17.83;;;;;;;;;;5094207;28;20052;-79
2022/08/20 04:34:03;;;;;;;22.08;17.55;;;;;;;;;;5095694;28;20446;-80
2022/08/20 04:36:30;;;;;;;22.23;18.38;;;;;;;;;;5095367;28;20052;-79
2022/08/20 04:38:57;;;;;;;18.42;16.60;;;;;;;;;;5096648;28;20044;-79
2022/08/20 04:41:24;;;;;;;18.75;16.63;;;;;;;;;;5096192;28;20513;-79
2022/08/20 04:43:53;;;;;;;19.20;16.40;;;;;;;;;;5094762;28;20080;-80
2022/08/20 04:46:22;;;;;;;23.50;17.25;;;;;;;;;;5095438;28;20051;-80
2022/08/20 04:48:49;;;;;;;22.13;17.08;;;;;;;;;;5095752;28;20053;-80
2022/08/20 04:51:17;;;;;;;19.30;16.20;;;;;;;;;;5094030;28;20052;-80
2022/08/20 04:53:45;;;;;;;17.15;15.45;;;;;;;;;;5094994;28;20044;-79
2022/08/20 04:56:22;;;;;;;19.13;16.23;;;;;;;;;;5094687;28;20127;-80
2022/08/20 04:58:50;;;;;;;18.77;16.75;;;;;;;;;;5095250;28;20391;-79
2022/08/20 05:01:17;;;;;;;17.13;15.43;;;;;;;;;;5098462;28;20055;-79
2022/08/20 05:03:46;;;;;;;18.98;16.45;;;;;;;;;;5100518;28;20044;-80
2022/08/20 05:06:14;;;;;;;17.63;15.38;;;;;;;;;;5101841;28;20075;-79
2022/08/20 05:08:42;;;;;;;30.95;19.15;;;;;;;;;;5100135;28;20531;-79
2022/08/20 05:11:10;;;;;;;19.90;17.00;;;;;;;;;;5101745;28;20083;-80
2022/08/20 05:13:57;;;;;;;17.17;15.38;;;;;;;;;;5100446;28;20048;-80
2022/08/20 05:16:24;;;;;;;26.00;18.83;;;;;;;;;;5101071;28;20051;-80
2022/08/20 05:18:51;;;;;;;18.10;16.23;;;;;;;;;;5101311;28;20135;-79
2022/08/20 05:21:19;;;;;;;19.60;17.50;;;;;;;;;;5101613;28;20094;-80
2022/08/20 05:23:47;;;;;;;20.10;16.00;;;;;;;;;;5099981;28;20529;-81
2022/08/20 05:26:18;;;;;;;18.95;15.75;;;;;;;;;;5099996;28;20048;-80
2022/08/20 05:28:47;;;;;;;17.10;15.30;;;;;;;;;;5101385;28;20055;-80
2022/08/20 05:31:25;;;;;;;22.73;17.65;;;;;;;;;;5100767;28;20532;-79
2022/08/20 05:34:00;;;;;;;17.85;15.20;;;;;;;;;;5101139;28;20044;-80
2022/08/20 05:36:27;;;;;;;17.02;14.43;;;;;;;;;;5099335;28;20047;-80
2022/08/20 05:38:54;;;;;;;19.67;15.40;;;;;;;;;;5099746;28;20463;-80
2022/08/20 05:41:21;;;;;;;18.75;16.75;;;;;;;;;;5099347;28;20499;-80
2022/08/20 05:43:56;;;;;;;17.05;15.32;;;;;;;;;;5099343;28;20139;-80
2022/08/20 05:46:23;;;;;;;16.35;14.73;;;;;;;;;;5101542;28;20048;-80
2022/08/20 05:48:50;;;;;;;14.77;13.35;;;;;;;;;;5101591;28;20047;-80
2022/08/20 05:51:17;;;;;;;14.85;13.18;;;;;;;;;;5102204;28;20079;-80
2022/08/20 05:53:44;;;;;;;15.93;13.02;;;;;;;;;;5102238;28;20129;-80
2022/08/20 05:56:11;;;;;;;12.80;11.60;;;;;;;;;;5100958;28;20048;-80
2022/08/20 05:58:39;;;;;;;14.18;12.68;;;;;;;;;;5101092;28;20106;-80
2022/08/20 06:01:06;;;;;;;14.60;13.18;;;;;;;;;;5102189;28;20047;-80
2022/08/20 06:06:19;;;;;;;13.52;12.32;;;;;;;;;;5101283;28;20048;-80
2022/08/20 06:09:06;;;;;;;13.77;12.50;;;;;;;;;;5101687;28;20135;-80
2022/08/20 06:11:34;;;;;;;13.80;12.55;;;;;;;;;;5100175;28;20040;-81
2022/08/20 06:14:04;;;;;;;14.60;12.32;;;;;;;;;;5099246;28;20239;-81
2022/08/20 06:16:31;;;;;;;12.27;11.02;;;;;;;;;;5100295;28;20044;-81
2022/08/20 06:18:58;;;;;;;12.55;11.30;;;;;;;;;;5101472;28;20047;-81
2022/08/20 06:21:28;;;;;;;12.27;11.07;;;;;;;;;;5101425;28;20055;-81
2022/08/20 06:23:55;;;;;;;11.35;10.45;;;;;;;;;;5099450;28;20050;-80
2022/08/20 06:26:27;;;;;;;12.32;10.55;;;;;;;;;;5098798;28;20567;-81
2022/08/20 06:28:56;;;;;;;10.00;9.20;;;;;;;;;;5099864;28;20127;-81
2022/08/20 06:31:24;;;;;;;10.98;10.00;;;;;;;;;;5099787;28;20056;-80
2022/08/20 06:33:51;;;;;;;10.45;9.43;;;;;;;;;;5097293;28;20464;-80
2022/08/20 06:36:18;;;;;;;11.20;10.20;;;;;;;;;;5098679;28;20105;-81
2022/08/20 06:38:46;;;;;;;10.05;9.25;;;;;;;;;;5096832;28;20052;-81
2022/08/20 06:41:13;;;;;;;9.93;8.82;;;;;;;;;;5097744;28;20411;-80
2022/08/20 06:43:40;;;;;;;10.18;9.20;;;;;;;;;;5080024;28;20052;-81
2022/08/20 06:46:07;;;;;;;9.52;8.73;;;;;;;;;;5097746;28;20048;-79
2022/08/20 06:48:35;;;;;;;9.85;9.05;;;;;;;;;;5097163;28;20483;-81
2022/08/20 06:51:05;;;;;;;9.45;8.63;;;;;;;;;;5079374;28;20059;-81
2022/08/20 06:53:32;;;;;;;9.48;8.73;;;;;;;;;;5097497;28;20525;-81
2022/08/20 06:55:59;;;;;;;9.95;8.95;;;;;;;;;;5078596;28;20056;-81
2022/08/20 06:58:30;;;;;;;9.48;8.57;;;;;;;;;;5097075;28;20079;-81
2022/08/20 07:01:08;;;;;;;10.00;9.10;;;;;;;;;;5098458;28;20550;-80
2022/08/20 07:03:37;;;;;;;8.65;7.90;;;;;;;;;;5080784;28;20045;-80
2022/08/20 07:06:05;;;;;;;9.10;8.23;;;;;;;;;;5098939;28;20048;-80
2022/08/20 07:08:32;;;;;;;9.88;8.18;;;;;;;;;;5081345;28;20079;-81
2022/08/20 07:10:59;;;;;;;9.27;8.38;;;;;;;;;;5096764;28;20105;-80
2022/08/20 07:13:27;;;;;;;10.95;8.60;;;;;;;;;;5077546;28;20087;-81
2022/08/20 07:15:55;;;;;;;9.07;8.38;;;;;;;;;;5078121;28;20083;-80
2022/08/20 07:18:23;;;;;;;8.93;7.32;;;;;;;;;;5077976;28;20052;-80
2022/08/20 07:20:55;;;;;;;8.65;7.93;;;;;;;;;;5078782;28;20098;-81
2022/08/20 07:23:24;;;;;;;9.55;8.70;;;;;;;;;;5076783;28;20048;-81
2022/08/20 07:25:54;;;;;;;8.95;8.15;;;;;;;;;;5077483;28;20079;-81
2022/08/20 07:28:22;;;;;;;8.82;8.02;;;;;;;;;;5079040;28;20048;-81
2022/08/20 07:33:41;;;;;;;8.05;7.43;;;;;;;;;;5095553;28;20051;-81
2022/08/20 07:36:11;;;;;;;8.30;7.57;;;;;;;;;;5095207;28;20048;-81
2022/08/20 07:38:38;;;;;;;9.25;8.38;;;;;;;;;;5077054;28;20638;-81
2022/08/20 07:41:08;;;;;;;8.27;7.57;;;;;;;;;;5095306;28;20131;-81
2022/08/20 07:43:37;;;;;;;10.52;7.72;;;;;;;;;;5077644;28;20059;-80
2022/08/20 07:46:07;;;;;;;8.00;7.20;;;;;;;;;;5077906;28;20416;-81
2022/08/20 07:48:39;;;;;;;8.32;7.72;;;;;;;;;;5077944;28;20078;-81
2022/08/20 07:51:07;;;;;;;8.07;7.38;;;;;;;;;;5094515;28;20052;-81
2022/08/20 07:53:36;;;;;;;8.00;7.40;;;;;;;;;;5076158;28;20131;-82
2022/08/20 07:56:04;;;;;;;7.30;6.80;;;;;;;;;;5077663;28;20052;-82
2022/08/20 07:58:34;;;;;;;7.55;6.95;;;;;;;;;;5080397;28;20059;-81
2022/08/20 08:01:02;;;;;;;7.85;7.25;;;;;;;;;;5097960;28;20127;-81
2022/08/20 08:03:30;;;;;;;8.27;7.47;;;;;;;;;;5096144;28;20048;-81
2022/08/20 08:06:17;;;;;;;9.68;7.90;;;;;;;;;;5082919;28;20051;-81
2022/08/20 08:09:01;;;;;;;7.43;6.82;;;;;;;;;;5096981;28;20040;-81
2022/08/20 08:11:30;;;;;;;11.95;7.97;;;;;;;;;;5097150;28;20051;-80
2022/08/20 08:13:58;;;;;;;8.80;7.93;;;;;;;;;;5092629;28;20507;-81
2022/08/20 08:16:27;;;;;;;10.43;7.78;;;;;;;;;;5066268;28;20076;-81
2022/08/20 08:18:55;;;;;;;10.90;8.07;;;;;;;;;;5084062;28;20059;-81
2022/08/20 08:21:23;;;;;;;11.30;9.02;;;;;;;;;;5065933;28;20040;-81
2022/08/20 08:23:52;;;;;;;10.40;9.40;;;;;;;;;;5067257;28;20055;-81
2022/08/20 08:26:21;;;;;;;11.27;9.13;;;;;;;;;;5065612;28;20051;-81
2022/08/20 08:28:48;;;;;;;9.02;8.23;;;;;;;;;;5077953;28;20465;-81
2022/08/20 08:31:15;;;;;;;18.08;10.30;;;;;;;;;;5056854;28;20048;-81
2022/08/20 08:33:42;;;;;;;12.52;9.75;;;;;;;;;;5075096;28;20414;-81
2022/08/20 08:36:14;;;;;;;10.07;8.63;;;;;;;;;;5056160;28;20048;-81
2022/08/20 08:38:43;;;;;;;15.93;9.13;;;;;;;;;;5074055;28;20101;-80
2022/08/20 08:41:19;;;;;;;12.10;9.32;;;;;;;;;;5056219;28;20070;-81
2022/08/20 08:43:47;;;;;;;12.23;9.32;;;;;;;;;;5056449;28;20060;-81
2022/08/20 08:46:21;;;;;;;11.52;8.73;;;;;;;;;;5056273;28;20044;-81
2022/08/20 08:48:52;;;;;;;10.55;8.27;;;;;;;;;;5073861;28;20055;-80
2022/08/20 08:51:24;;;;;;;12.63;9.00;;;;;;;;;;5055317;28;20127;-81
2022/08/20 08:53:53;;;;;;;10.23;8.10;;;;;;;;;;5073264;28;20083;-80
2022/08/20 08:56:26;;;;;;;9.55;8.50;;;;;;;;;;5073475;28;20396;-82
2022/08/20 08:58:54;;;;;;;11.27;8.20;;;;;;;;;;5055944;28;20048;-81
2022/08/20 09:01:22;;;;;;;11.40;7.70;;;;;;;;;;5056193;28;20391;-82
2022/08/20 09:04:10;;;;;;;8.95;7.15;;;;;;;;;;5058274;28;20087;-81
2022/08/20 09:06:39;;;;;;;10.00;6.90;;;;;;;;;;5055608;28;20068;-81
2022/08/20 09:09:11;;;;;;;6.93;6.20;;;;;;;;;;5073755;28;20056;-82
2022/08/20 09:11:46;;;;;;;6.38;5.78;;;;;;;;;;5055362;28;20444;-81
2022/08/20 09:14:13;;;;;;;6.53;5.45;;;;;;;;;;5072981;28;20532;-81
2022/08/20 09:16:40;;;;;;;8.00;5.10;;;;;;;;;;5073306;28;20453;-82
2022/08/20 09:19:19;;;;;;;7.07;5.45;;;;;;;;;;5073289;28;20053;-82
2022/08/20 09:21:46;;;;;;;11.50;5.30;;;;;;;;;;5073654;28;20044;-81
2022/08/20 09:24:13;;;;;;;6.40;5.35;;;;;;;;;;5055818;28;20558;-82
2022/08/20 09:26:40;;;;;;;6.05;5.55;;;;;;;;;;5073614;28;20083;-82
2022/08/20 09:29:08;;;;;;;6.93;4.90;;;;;;;;;;5056071;28;20098;-82
2022/08/20 09:31:36;;;;;;;5.40;5.00;;;;;;;;;;5055673;28;20082;-82
2022/08/20 09:34:04;;;;;;;7.75;5.60;;;;;;;;;;5073216;28;20053;-83
2022/08/20 09:36:32;;;;;;;5.50;5.00;;;;;;;;;;5055322;28;20053;-81
2022/08/20 09:38:59;;;;;;;5.88;5.38;;;;;;;;;;5054947;28;20087;-81
2022/08/20 09:41:29;;;;;;;5.28;4.82;;;;;;;;;;5072949;28;20104;-82
2022/08/20 09:43:59;;;;;;;5.07;4.63;;;;;;;;;;5055454;28;20088;-81
2022/08/20 09:46:27;;;;;;;5.70;4.03;;;;;;;;;;5056673;28;20182;-82
2022/08/20 09:48:54;;;;;;;4.75;4.45;;;;;;;;;;5061853;28;20049;-83
2022/08/20 09:51:22;;;;;;;4.88;4.57;;;;;;;;;;5060528;28;20078;-83
2022/08/20 09:53:49;;;;;;;4.15;3.65;;;;;;;;;;5059850;28;20078;-83
2022/08/20 09:56:17;;;;;;;5.05;3.80;;;;;;;;;;5079066;28;20052;-83
2022/08/20 09:58:47;;;;;;;4.10;3.80;;;;;;;;;;5059978;28;20044;-83
2022/08/20 10:01:15;;;;;;;5.88;4.00;;;;;;;;;;5078599;28;20051;-83
2022/08/20 10:03:43;;;;;;;4.30;3.90;;;;;;;;;;5061303;28;20041;-83
2022/08/20 10:06:13;;;;;;;6.05;3.33;;;;;;;;;;5060785;28;20048;-83
2022/08/20 10:08:40;;;;;;;5.13;4.00;;;;;;;;;;5060153;28;20040;-83
2022/08/20 10:11:07;;;;;;;4.63;3.78;;;;;;;;;;5061488;28;20080;-83
2022/08/20 10:13:35;;;;;;;3.92;3.60;;;;;;;;;;5061510;28;20076;-83
2022/08/20 10:16:02;;;;;;;4.50;4.10;;;;;;;;;;5078469;28;20040;-83
2022/08/20 10:18:29;;;;;;;3.42;3.20;;;;;;;;;;5061904;28;20507;-82
2022/08/20 10:20:56;;;;;;;5.57;3.70;;;;;;;;;;5079242;28;20495;-83
2022/08/20 10:23:24;;;;;;;8.35;3.65;;;;;;;;;;5078760;28;20166;-83
2022/08/20 10:25:51;;;;;;;4.00;3.60;;;;;;;;;;5078018;28;20053;-83
2022/08/20 10:28:18;;;;;;;4.18;3.50;;;;;;;;;;5078749;28;20044;-83
2022/08/20 10:30:45;;;;;;;3.92;3.50;;;;;;;;;;5060195;28;20057;-83
2022/08/20 10:33:13;;;;;;;4.35;3.60;;;;;;;;;;5078306;28;20052;-84
2022/08/20 10:35:40;;;;;;;4.75;4.00;;;;;;;;;;5060929;28;20094;-84
2022/08/20 10:38:07;;;;;;;4.50;3.50;;;;;;;;;;5060638;28;20048;-83
2022/08/20 10:40:34;;;;;;;3.88;3.67;;;;;;;;;;5078350;28;20052;-83
2022/08/20 10:43:02;;;;;;;4.72;3.88;;;;;;;;;;5060008;28;20076;-83
2022/08/20 10:45:29;;;;;;;3.58;3.25;;;;;;;;;;5077089;28;20091;-84
2022/08/20 10:47:58;;;;;;;5.47;3.88;;;;;;;;;;5080993;28;20427;-83
2022/08/20 10:50:26;;;;;;;6.47;3.55;;;;;;;;;;5078083;28;20052;-83
2022/08/20 10:52:56;;;;;;;3.90;3.70;;;;;;;;;;5060917;28;20071;-83
2022/08/20 10:55:24;;;;;;;3.65;3.42;;;;;;;;;;5060586;28;20075;-83
2022/08/20 10:57:51;;;;;;;4.22;3.70;;;;;;;;;;5060221;28;20397;-83
2022/08/20 11:00:19;;;;;;;6.65;3.67;;;;;;;;;;5059503;28;20056;-84
2022/08/20 11:02:46;;;;;;;3.90;3.40;;;;;;;;;;5059875;28;20076;-84
2022/08/20 11:05:13;;;;;;;4.35;3.95;;;;;;;;;;5059617;28;20044;-83
2022/08/20 11:07:42;;;;;;;4.60;4.20;;;;;;;;;;5059173;28;20419;-83
2022/08/20 11:10:26;;;;;;;6.50;3.50;;;;;;;;;;5077589;28;20044;-83
2022/08/20 11:12:54;;;;;;;6.80;3.97;;;;;;;;;;5077389;28;20040;-84
2022/08/20 11:15:21;;;;;;;4.68;4.30;;;;;;;;;;5076504;28;20072;-83
2022/08/20 11:17:48;;;;;;;6.53;4.60;;;;;;;;;;5075646;28;20502;-83
2022/08/20 11:20:16;;;;;;;6.13;3.42;;;;;;;;;;5056064;28;20079;-83
2022/08/20 11:22:43;;;;;;;4.65;3.90;;;;;;;;;;5056643;28;20076;-82
2022/08/20 11:25:11;;;;;;;7.60;3.45;;;;;;;;;;5065578;22;20108;-89
2022/08/20 11:27:43;;;;;;;4.53;4.03;;;;;;;;;;4998333;28;20050;-91
2022/08/20 11:30:12;;;;;;;4.57;4.17;;;;;;;;;;4998982;28;20053;-89
2022/08/20 11:32:39;;;;;;;4.60;3.95;;;;;;;;;;5014872;28;20467;-90
2022/08/20 11:35:07;;;;;;;3.90;3.63;;;;;;;;;;5015230;28;20141;-89
2022/08/20 11:37:55;;;;;;;3.92;3.60;;;;;;;;;;5000191;28;20058;-90
2022/08/20 11:40:23;;;;;;;4.07;3.60;;;;;;;;;;4997900;28;20054;-88
2022/08/20 11:42:50;;;;;;;5.38;3.80;;;;;;;;;;4997487;28;20110;-88
2022/08/20 11:45:37;;;;;;;6.28;3.55;;;;;;;;;;5015141;28;20054;-91
2022/08/20 11:48:04;;;;;;;5.53;4.18;;;;;;;;;;4997804;28;20145;-89
2022/08/20 11:50:31;;;;;;;6.57;3.85;;;;;;;;;;4997561;28;20046;-88
2022/08/20 11:52:59;;;;;;;4.85;3.42;;;;;;;;;;5014748;28;20073;-89
2022/08/20 11:55:27;;;;;;;4.72;3.90;;;;;;;;;;4997346;28;20125;-90
2022/08/20 11:57:56;;;;;;;5.63;3.80;;;;;;;;;;5014862;28;20058;-90
2022/08/20 12:00:27;;;;;;;4.65;3.35;;;;;;;;;;4997892;28;20482;-90
2022/08/20 12:02:59;;;;;;;6.28;3.88;;;;;;;;;;4997904;28;20104;-90
2022/08/20 12:05:28;;;;;;;6.18;3.15;;;;;;;;;;4997292;28;20141;-90
2022/08/20 12:07:56;;;;;;;5.20;3.92;;;;;;;;;;4997389;28;20052;-89
2022/08/20 12:10:25;;;;;;;9.75;5.18;;;;;;;;;;4996455;28;20045;-90
2022/08/20 12:12:52;;;;;;;8.32;6.05;;;;;;;;;;4997649;28;20046;-89
2022/08/20 12:15:19;;;;;;;9.32;5.97;;;;;;;;;;5014397;28;20073;-89
2022/08/20 12:17:47;;;;;;;6.80;5.70;;;;;;;;;;4997415;28;20074;-88
2022/08/20 12:20:14;;;;;;;7.50;6.55;;;;;;;;;;5014267;28;20065;-86
2022/08/20 12:22:43;;;;;;;8.32;7.47;;;;;;;;;;4996283;28;20165;-87
2022/08/20 12:25:11;;;;;;;10.65;8.10;;;;;;;;;;5001162;28;20057;-85
2022/08/20 12:27:38;;;;;;;9.35;7.53;;;;;;;;;;5016216;28;20084;-87
2022/08/20 12:30:07;;;;;;;9.27;8.18;;;;;;;;;;5016398;28;20136;-86
2022/08/20 12:32:35;;;;;;;16.00;9.25;;;;;;;;;;5033583;28;20133;-85
2022/08/20 12:35:02;;;;;;;15.23;10.13;;;;;;;;;;5033493;28;20140;-91
2022/08/20 12:37:30;;;;;;;14.40;9.35;;;;;;;;;;5016625;28;20390;-91
2022/08/20 12:39:58;;;;;;;15.35;11.40;;;;;;;;;;5016820;28;20091;-91
2022/08/20 12:42:28;;;;;;;17.65;13.32;;;;;;;;;;5016337;28;20585;-92
2022/08/20 12:44:55;;;;;;;18.23;12.57;;;;;;;;;;5016681;28;20041;-90
2022/08/20 12:47:24;;;;;;;19.27;13.63;;;;;;;;;;5016537;28;20084;-91
2022/08/20 12:49:54;;;;;;;16.13;13.35;;;;;;;;;;5016386;28;20073;-92
2022/08/20 12:52:22;;;;;;;16.33;13.77;;;;;;;;;;5016804;28;20049;-94
2022/08/20 12:54:50;;;;;;;19.75;14.80;;;;;;;;;;5017091;28;20513;-95
2022/08/20 12:57:31;;;;;;;18.70;14.48;;;;;;;;;;5016774;28;20079;-95
2022/08/20 13:00:00;;;;;;;17.30;15.40;;;;;;;;;;5016598;28;20080;-93
2022/08/20 13:02:29;;;;;;;20.15;14.52;;;;;;;;;;5016769;28;20054;-92
2022/08/20 13:04:57;;;;;;;25.65;16.77;;;;;;;;;;5015901;28;20632;-91
2022/08/20 13:07:30;;;;;;;19.08;15.73;;;;;;;;;;5016959;28;20057;-89
2022/08/20 13:09:58;;;;;;;21.17;16.45;;;;;;;;;;5016217;28;20172;-89
2022/08/20 13:12:25;;;;;;;16.50;14.23;;;;;;;;;;5016093;28;20137;-89
2022/08/20 13:14:53;;;;;;;24.55;16.80;;;;;;;;;;5015925;28;20132;-87
2022/08/20 13:17:20;;;;;;;25.05;19.50;;;;;;;;;;5015811;28;20072;-89
2022/08/20 13:20:05;;;;;;;22.58;18.88;;;;;;;;;;5013689;28;20091;-87
2022/08/20 13:22:32;;;;;;;20.20;18.02;;;;;;;;;;5018370;28;20080;-86
2022/08/20 13:24:59;;;;;;;22.98;16.98;;;;;;;;;;5019201;28;20088;-87
2022/08/20 13:27:27;;;;;;;27.48;17.83;;;;;;;;;;5019537;28;20132;-85
2022/08/20 13:29:55;;;;;;;42.90;25.25;;;;;;;;;;5019267;28;20080;-84
2022/08/20 13:32:25;;;;;;;37.88;24.63;;;;;;;;;;5019095;28;20512;-83
2022/08/20 13:34:52;;;;;;;30.65;21.80;;;;;;;;;;5036213;28;20104;-85
2022/08/20 13:37:21;;;;;;;27.95;21.88;;;;;;;;;;5019151;28;20461;-86
2022/08/20 13:39:51;;;;;;;29.58;21.73;;;;;;;;;;5036634;28;20092;-87
2022/08/20 13:42:18;;;;;;;29.83;21.35;;;;;;;;;;5019412;28;20128;-86
2022/08/20 13:44:46;;;;;;;27.13;21.52;;;;;;;;;;5019172;28;20493;-86
2022/08/20 13:47:18;;;;;;;28.98;21.88;;;;;;;;;;5019159;28;20482;-86
2022/08/20 13:49:46;;;;;;;26.52;22.80;;;;;;;;;;5019166;28;20049;-86
2022/08/20 13:52:14;;;;;;;25.40;22.45;;;;;;;;;;5019098;28;20628;-85
2022/08/20 13:54:43;;;;;;;28.02;23.17;;;;;;;;;;5036297;28;20050;-87
2022/08/20 13:57:12;;;;;;;38.05;28.02;;;;;;;;;;5036780;28;20049;-89
2022/08/20 13:59:40;;;;;;;27.20;22.50;;;;;;;;;;5018598;28;20136;-87
2022/08/20 14:02:08;;;;;;;24.92;21.58;;;;;;;;;;5019004;28;20053;-88
2022/08/20 14:04:35;;;;;;;23.90;20.60;;;;;;;;;;5018495;28;20092;-88
2022/08/20 14:07:16;;;;;;;22.33;19.75;;;;;;;;;;5036445;28;20085;-89
2022/08/20 14:09:45;;;;;;;22.88;19.45;;;;;;;;;;5019328;28;20053;-89
2022/08/20 14:12:13;;;;;;;25.35;20.75;;;;;;;;;;5018963;28;20132;-85
2022/08/20 14:14:40;;;;;;;25.63;21.30;;;;;;;;;;5018278;28;20473;-85
2022/08/20 14:17:12;;;;;;;27.80;19.58;;;;;;;;;;5017254;28;20072;-85
2022/08/20 14:19:41;;;;;;;26.33;22.00;;;;;;;;;;5035442;28;20092;-85
2022/08/20 14:22:08;;;;;;;23.83;19.40;;;;;;;;;;5017590;28;20139;-85
2022/08/20 14:24:35;;;;;;;25.25;18.80;;;;;;;;;;5017929;28;20084;-85
2022/08/20 14:27:03;;;;;;;22.73;18.58;;;;;;;;;;5018506;28;20080;-87
2022/08/20 14:29:33;;;;;;;19.67;16.88;;;;;;;;;;5018857;28;20468;-88
2022/08/20 14:32:03;;;;;;;21.30;19.10;;;;;;;;;;5018969;28;20485;-87
2022/08/20 14:34:30;;;;;;;18.23;16.30;;;;;;;;;;5034515;28;20080;-87
2022/08/20 14:37:08;;;;;;;19.63;17.67;;;;;;;;;;5034611;28;20129;-86
2022/08/20 14:39:36;;;;;;;19.42;17.33;;;;;;;;;;5035704;28;20084;-87
2022/08/20 14:42:03;;;;;;;25.38;19.33;;;;;;;;;;5035309;28;20042;-83
2022/08/20 14:44:30;;;;;;;24.92;18.88;;;;;;;;;;5033471;28;20049;-83
2022/08/20 14:47:08;;;;;;;29.23;20.05;;;;;;;;;;5033959;28;20088;-84
2022/08/20 14:49:36;;;;;;;23.63;18.95;;;;;;;;;;5034905;28;20093;-84